sensor_id;sensor_type;location;lat;lon;timestamp;P1;durP1;ratioP1;P2;durP2;ratioP2
32106;SDS011;18622;51.998;10.440;2022-12-10T08:02:29;83.20;;;29.10;;
32106;SDS011;18622;51.998;10.440;2022-12-10T08:04:56;92.57;;;33.20;;
32106;SDS011;18622;51.998;10.440;2022-12-10T08:07:24;87.30;;;31.23;;
32106;SDS011;18622;51.998;10.440;2022-12-10T08:09:52;99.53;;;34.70;;
32106;SDS011;18622;51.998;10.440;2022-12-10T08:12:20;88.37;;;32.10;;
32106;SDS011;18622;51.998;10.440;2022-12-10T08:17:16;101.20;;;34.48;;
32106;SDS011;18622;51.998;10.440;2022-12-10T08:19:44;109.13;;;36.53;;
32106;SDS011;18622;51.998;10.440;2022-12-10T08:22:12;110.87;;;35.50;;
32106;SDS011;18622;51.998;10.440;2022-12-10T08:24:40;95.47;;;34.67;;
32106;SDS011;18622;51.998;10.440;2022-12-10T08:27:08;97.53;;;33.87;;
32106;SDS011;18622;51.998;10.440;2022-12-10T08:29:35;104.43;;;35.40;;
32106;SDS011;18622;51.998;10.440;2022-12-10T08:32:03;97.90;;;32.50;;
32106;SDS011;18622;51.998;10.440;2022-12-10T08:34:31;98.27;;;33.87;;
32106;SDS011;18622;51.998;10.440;2022-12-10T08:36:59;101.10;;;33.63;;
32106;SDS011;18622;51.998;10.440;2022-12-10T08:39:27;92.93;;;33.17;;
32106;SDS011;18622;51.998;10.440;2022-12-10T08:41:54;89.43;;;33.40;;
32106;SDS011;18622;51.998;10.440;2022-12-10T08:44:22;103.03;;;35.10;;
32106;SDS011;18622;51.998;10.440;2022-12-10T08:46:50;101.07;;;35.20;;
32106;SDS011;18622;51.998;10.440;2022-12-10T08:49:18;102.83;;;37.80;;
32106;SDS011;18622;51.998;10.440;2022-12-10T08:51:45;107.10;;;36.20;;
32106;SDS011;18622;51.998;10.440;2022-12-10T08:54:13;110.63;;;37.07;;
32106;SDS011;18622;51.998;10.440;2022-12-10T08:56:41;100.77;;;36.23;;
32106;SDS011;18622;51.998;10.440;2022-12-10T08:59:09;116.07;;;38.43;;
32106;SDS011;18622;51.998;10.440;2022-12-10T09:01:37;107.53;;;38.50;;
32106;SDS011;18622;51.998;10.440;2022-12-10T09:04:04;120.23;;;37.97;;
32106;SDS011;18622;51.998;10.440;2022-12-10T09:06:32;102.43;;;33.90;;
32106;SDS011;18622;51.998;10.440;2022-12-10T09:09:01;147.97;;;45.97;;
32106;SDS011;18622;51.998;10.440;2022-12-10T09:11:30;115.45;;;38.05;;
32106;SDS011;18622;51.998;10.440;2022-12-10T09:14:00;112.50;;;37.60;;
32106;SDS011;18622;51.998;10.440;2022-12-10T09:16:34;112.43;;;36.53;;
32106;SDS011;18622;51.998;10.440;2022-12-10T09:18:59;110.83;;;34.50;;
32106;SDS011;18622;51.998;10.440;2022-12-10T09:21:27;118.28;;;35.90;;
32106;SDS011;18622;51.998;10.440;2022-12-10T09:23:56;104.47;;;35.52;;
32106;SDS011;18622;51.998;10.440;2022-12-10T09:26:24;105.72;;;34.98;;
32106;SDS011;18622;51.998;10.440;2022-12-10T09:28:52;113.77;;;36.53;;
32106;SDS011;18622;51.998;10.440;2022-12-10T09:31:20;102.53;;;33.98;;
32106;SDS011;18622;51.998;10.440;2022-12-10T09:33:51;100.00;;;34.50;;
32106;SDS011;18622;51.998;10.440;2022-12-10T09:36:18;99.28;;;32.50;;
32106;SDS011;18622;51.998;10.440;2022-12-10T09:38:47;90.67;;;31.97;;
32106;SDS011;18622;51.998;10.440;2022-12-10T09:46:54;77.70;;;28.33;;
32106;SDS011;18622;51.998;10.440;2022-12-10T09:50:26;70.67;;;26.00;;
32106;SDS011;18622;51.998;10.440;2022-12-10T09:52:15;73.83;;;27.22;;
32106;SDS011;18622;51.998;10.440;2022-12-10T09:54:48;74.82;;;26.75;;
32106;SDS011;18622;51.998;10.440;2022-12-10T09:57:25;67.12;;;24.60;;
32106;SDS011;18622;51.998;10.440;2022-12-10T10:00:09;74.23;;;26.20;;
32106;SDS011;18622;51.998;10.440;2022-12-10T10:02:33;70.30;;;28.12;;
32106;SDS011;18622;51.998;10.440;2022-12-10T10:07:39;56.80;;;24.27;;
32106;SDS011;18622;51.998;10.440;2022-12-10T10:10:22;61.90;;;24.67;;
32106;SDS011;18622;51.998;10.440;2022-12-10T10:12:45;63.13;;;24.57;;
32106;SDS011;18622;51.998;10.440;2022-12-10T10:15:15;71.37;;;26.63;;
32106;SDS011;18622;51.998;10.440;2022-12-10T10:17:44;68.00;;;32.05;;
32106;SDS011;18622;51.998;10.440;2022-12-10T10:20:13;60.60;;;24.65;;
32106;SDS011;18622;51.998;10.440;2022-12-10T10:22:40;55.70;;;23.45;;
32106;SDS011;18622;51.998;10.440;2022-12-10T10:25:15;57.87;;;25.47;;
32106;SDS011;18622;51.998;10.440;2022-12-10T10:27:45;57.47;;;24.23;;
32106;SDS011;18622;51.998;10.440;2022-12-10T10:30:15;58.10;;;25.37;;
32106;SDS011;18622;51.998;10.440;2022-12-10T10:32:45;58.63;;;25.65;;
32106;SDS011;18622;51.998;10.440;2022-12-10T10:35:41;52.30;;;23.75;;
32106;SDS011;18622;51.998;10.440;2022-12-10T10:37:50;63.67;;;28.20;;
32106;SDS011;18622;51.998;10.440;2022-12-10T10:40:22;52.58;;;22.32;;
32106;SDS011;18622;51.998;10.440;2022-12-10T10:42:52;53.08;;;24.85;;
32106;SDS011;18622;51.998;10.440;2022-12-10T10:48:10;57.93;;;22.97;;
32106;SDS011;18622;51.998;10.440;2022-12-10T10:50:47;57.97;;;23.73;;
32106;SDS011;18622;51.998;10.440;2022-12-10T10:55:59;58.00;;;23.97;;
32106;SDS011;18622;51.998;10.440;2022-12-10T10:58:28;54.30;;;25.35;;
32106;SDS011;18622;51.998;10.440;2022-12-10T11:01:02;67.42;;;31.05;;
32106;SDS011;18622;51.998;10.440;2022-12-10T11:03:32;73.03;;;30.63;;
32106;SDS011;18622;51.998;10.440;2022-12-10T11:06:05;67.47;;;26.85;;
32106;SDS011;18622;51.998;10.440;2022-12-10T11:08:33;66.80;;;28.00;;
32106;SDS011;18622;51.998;10.440;2022-12-10T11:11:04;61.75;;;26.10;;
32106;SDS011;18622;51.998;10.440;2022-12-10T11:13:39;61.77;;;25.90;;
32106;SDS011;18622;51.998;10.440;2022-12-10T11:16:20;59.90;;;25.30;;
32106;SDS011;18622;51.998;10.440;2022-12-10T11:18:54;64.53;;;24.57;;
32106;SDS011;18622;51.998;10.440;2022-12-10T11:21:25;58.93;;;24.93;;
32106;SDS011;18622;51.998;10.440;2022-12-10T11:23:53;60.53;;;25.00;;
32106;SDS011;18622;51.998;10.440;2022-12-10T11:26:38;60.70;;;25.43;;
32106;SDS011;18622;51.998;10.440;2022-12-10T11:29:13;57.43;;;26.17;;
32106;SDS011;18622;51.998;10.440;2022-12-10T11:35:14;58.35;;;25.37;;
32106;SDS011;18622;51.998;10.440;2022-12-10T11:43:03;57.00;;;23.67;;
32106;SDS011;18622;51.998;10.440;2022-12-10T11:45:52;52.53;;;20.92;;
32106;SDS011;18622;51.998;10.440;2022-12-10T11:48:26;54.07;;;23.73;;
32106;SDS011;18622;51.998;10.440;2022-12-10T11:50:52;56.50;;;23.47;;
32106;SDS011;18622;51.998;10.440;2022-12-10T11:56:02;55.77;;;23.70;;
32106;SDS011;18622;51.998;10.440;2022-12-10T12:01:30;56.90;;;23.77;;
32106;SDS011;18622;51.998;10.440;2022-12-10T12:15:13;59.67;;;25.60;;
32106;SDS011;18622;51.998;10.440;2022-12-10T12:17:52;63.17;;;26.00;;
32106;SDS011;18622;51.998;10.440;2022-12-10T12:20:18;58.28;;;24.52;;
32106;SDS011;18622;51.998;10.440;2022-12-10T12:22:49;57.85;;;24.75;;
32106;SDS011;18622;51.998;10.440;2022-12-10T12:25:22;55.67;;;25.75;;
32106;SDS011;18622;51.998;10.440;2022-12-10T12:27:58;60.03;;;26.00;;
32106;SDS011;18622;51.998;10.440;2022-12-10T12:30:29;57.77;;;24.70;;
32106;SDS011;18622;51.998;10.440;2022-12-10T12:33:04;57.15;;;23.75;;
32106;SDS011;18622;51.998;10.440;2022-12-10T12:35:43;58.48;;;23.15;;
32106;SDS011;18622;51.998;10.440;2022-12-10T12:39:01;60.77;;;24.17;;
32106;SDS011;18622;51.998;10.440;2022-12-10T12:41:34;55.97;;;24.03;;
32106;SDS011;18622;51.998;10.440;2022-12-10T12:43:31;53.30;;;23.17;;
32106;SDS011;18622;51.998;10.440;2022-12-10T12:45:54;62.00;;;24.63;;
32106;SDS011;18622;51.998;10.440;2022-12-10T12:48:31;51.93;;;22.17;;
32106;SDS011;18622;51.998;10.440;2022-12-10T12:51:06;57.93;;;24.30;;
32106;SDS011;18622;51.998;10.440;2022-12-10T12:53:50;62.03;;;24.57;;
32106;SDS011;18622;51.998;10.440;2022-12-10T12:56:22;58.60;;;24.53;;
32106;SDS011;18622;51.998;10.440;2022-12-10T12:59:08;50.00;;;22.60;;
32106;SDS011;18622;51.998;10.440;2022-12-10T13:01:53;56.03;;;24.20;;
32106;SDS011;18622;51.998;10.440;2022-12-10T13:04:24;53.43;;;22.73;;
32106;SDS011;18622;51.998;10.440;2022-12-10T13:09:46;52.57;;;22.90;;
32106;SDS011;18622;51.998;10.440;2022-12-10T13:12:16;50.63;;;20.75;;
32106;SDS011;18622;51.998;10.440;2022-12-10T13:22:59;50.30;;;20.03;;
32106;SDS011;18622;51.998;10.440;2022-12-10T13:25:39;46.70;;;21.03;;
32106;SDS011;18622;51.998;10.440;2022-12-10T13:28:26;52.10;;;21.43;;
32106;SDS011;18622;51.998;10.440;2022-12-10T13:36:35;41.50;;;19.00;;
32106;SDS011;18622;51.998;10.440;2022-12-10T13:41:39;52.93;;;20.73;;
32106;SDS011;18622;51.998;10.440;2022-12-10T13:44:37;45.08;;;20.00;;
32106;SDS011;18622;51.998;10.440;2022-12-10T13:47:25;57.43;;;22.03;;
32106;SDS011;18622;51.998;10.440;2022-12-10T13:49:53;58.30;;;23.70;;
32106;SDS011;18622;51.998;10.440;2022-12-10T13:52:31;55.13;;;20.67;;
32106;SDS011;18622;51.998;10.440;2022-12-10T13:55:22;46.37;;;19.10;;
32106;SDS011;18622;51.998;10.440;2022-12-10T14:03:31;43.77;;;18.57;;
32106;SDS011;18622;51.998;10.440;2022-12-10T14:08:55;45.47;;;19.67;;
32106;SDS011;18622;51.998;10.440;2022-12-10T14:11:21;51.08;;;21.17;;
32106;SDS011;18622;51.998;10.440;2022-12-10T14:13:52;47.17;;;21.17;;
32106;SDS011;18622;51.998;10.440;2022-12-10T14:16:23;55.48;;;20.90;;
32106;SDS011;18622;51.998;10.440;2022-12-10T14:18:55;54.98;;;21.12;;
32106;SDS011;18622;51.998;10.440;2022-12-10T14:21:24;52.13;;;19.90;;
32106;SDS011;18622;51.998;10.440;2022-12-10T14:23:52;52.75;;;21.27;;
32106;SDS011;18622;51.998;10.440;2022-12-10T14:26:21;53.90;;;19.20;;
32106;SDS011;18622;51.998;10.440;2022-12-10T14:29:00;45.60;;;19.30;;
32106;SDS011;18622;51.998;10.440;2022-12-10T14:31:33;54.77;;;22.50;;
32106;SDS011;18622;51.998;10.440;2022-12-10T14:34:10;51.20;;;22.00;;
32106;SDS011;18622;51.998;10.440;2022-12-10T14:36:45;46.60;;;20.13;;
32106;SDS011;18622;51.998;10.440;2022-12-10T14:39:16;51.10;;;21.40;;
32106;SDS011;18622;51.998;10.440;2022-12-10T14:41:48;49.03;;;20.07;;
32106;SDS011;18622;51.998;10.440;2022-12-10T14:44:19;47.05;;;19.40;;
32106;SDS011;18622;51.998;10.440;2022-12-10T14:46:48;50.12;;;20.40;;
32106;SDS011;18622;51.998;10.440;2022-12-10T14:49:20;47.08;;;18.77;;
32106;SDS011;18622;51.998;10.440;2022-12-10T14:51:52;46.90;;;18.87;;
32106;SDS011;18622;51.998;10.440;2022-12-10T14:54:32;48.55;;;18.90;;
32106;SDS011;18622;51.998;10.440;2022-12-10T15:00:07;45.80;;;19.33;;
32106;SDS011;18622;51.998;10.440;2022-12-10T15:02:41;46.25;;;19.98;;
32106;SDS011;18622;51.998;10.440;2022-12-10T15:05:12;49.10;;;20.35;;
32106;SDS011;18622;51.998;10.440;2022-12-10T15:07:41;45.33;;;18.85;;
32106;SDS011;18622;51.998;10.440;2022-12-10T15:10:16;41.00;;;17.80;;
32106;SDS011;18622;51.998;10.440;2022-12-10T15:12:48;43.77;;;18.77;;
32106;SDS011;18622;51.998;10.440;2022-12-10T15:15:28;41.70;;;19.77;;
32106;SDS011;18622;51.998;10.440;2022-12-10T15:20:44;42.47;;;17.37;;
32106;SDS011;18622;51.998;10.440;2022-12-10T15:23:22;53.23;;;23.23;;
32106;SDS011;18622;51.998;10.440;2022-12-10T15:25:59;40.03;;;17.12;;
32106;SDS011;18622;51.998;10.440;2022-12-10T15:28:32;38.40;;;16.87;;
32106;SDS011;18622;51.998;10.440;2022-12-10T15:31:12;39.88;;;16.82;;
32106;SDS011;18622;51.998;10.440;2022-12-10T15:33:47;39.93;;;15.87;;
32106;SDS011;18622;51.998;10.440;2022-12-10T15:36:28;33.20;;;14.70;;
32106;SDS011;18622;51.998;10.440;2022-12-10T15:39:05;37.95;;;15.95;;
32106;SDS011;18622;51.998;10.440;2022-12-10T15:41:55;34.77;;;14.33;;
32106;SDS011;18622;51.998;10.440;2022-12-10T15:47:00;39.67;;;16.67;;
32106;SDS011;18622;51.998;10.440;2022-12-10T15:49:30;36.08;;;15.13;;
32106;SDS011;18622;51.998;10.440;2022-12-10T15:51:58;47.27;;;19.50;;
32106;SDS011;18622;51.998;10.440;2022-12-10T15:54:36;44.47;;;16.87;;
32106;SDS011;18622;51.998;10.440;2022-12-10T15:57:13;43.10;;;17.93;;
32106;SDS011;18622;51.998;10.440;2022-12-10T15:59:46;45.47;;;18.47;;
32106;SDS011;18622;51.998;10.440;2022-12-10T16:04:55;49.73;;;22.25;;
32106;SDS011;18622;51.998;10.440;2022-12-10T16:07:23;44.13;;;17.83;;
32106;SDS011;18622;51.998;10.440;2022-12-10T16:09:51;46.03;;;18.63;;
32106;SDS011;18622;51.998;10.440;2022-12-10T16:12:19;43.57;;;17.57;;
32106;SDS011;18622;51.998;10.440;2022-12-10T16:14:48;44.60;;;18.90;;
32106;SDS011;18622;51.998;10.440;2022-12-10T16:17:18;41.40;;;17.27;;
32106;SDS011;18622;51.998;10.440;2022-12-10T16:23:08;47.93;;;18.73;;
32106;SDS011;18622;51.998;10.440;2022-12-10T16:25:37;46.83;;;19.57;;
32106;SDS011;18622;51.998;10.440;2022-12-10T16:28:07;68.97;;;30.97;;
32106;SDS011;18622;51.998;10.440;2022-12-10T16:30:38;40.90;;;18.50;;
32106;SDS011;18622;51.998;10.440;2022-12-10T16:33:07;54.85;;;24.65;;
32106;SDS011;18622;51.998;10.440;2022-12-10T16:35:35;44.13;;;21.50;;
32106;SDS011;18622;51.998;10.440;2022-12-10T16:38:03;38.53;;;18.37;;
32106;SDS011;18622;51.998;10.440;2022-12-10T16:40:32;50.80;;;21.20;;
32106;SDS011;18622;51.998;10.440;2022-12-10T16:42:59;36.23;;;17.27;;
32106;SDS011;18622;51.998;10.440;2022-12-10T16:45:28;45.23;;;19.63;;
32106;SDS011;18622;51.998;10.440;2022-12-10T16:47:57;47.43;;;22.17;;
32106;SDS011;18622;51.998;10.440;2022-12-10T16:50:25;38.27;;;17.33;;
32106;SDS011;18622;51.998;10.440;2022-12-10T16:52:54;43.30;;;18.60;;
32106;SDS011;18622;51.998;10.440;2022-12-10T16:55:23;62.88;;;31.55;;
32106;SDS011;18622;51.998;10.440;2022-12-10T16:57:52;44.42;;;17.73;;
32106;SDS011;18622;51.998;10.440;2022-12-10T17:00:21;44.42;;;20.27;;
32106;SDS011;18622;51.998;10.440;2022-12-10T17:02:51;41.75;;;16.93;;
32106;SDS011;18622;51.998;10.440;2022-12-10T17:05:27;52.78;;;24.47;;
32106;SDS011;18622;51.998;10.440;2022-12-10T17:07:53;76.60;;;33.87;;
32106;SDS011;18622;51.998;10.440;2022-12-10T17:10:20;44.63;;;19.23;;
32106;SDS011;18622;51.998;10.440;2022-12-10T17:12:49;83.47;;;36.67;;
32106;SDS011;18622;51.998;10.440;2022-12-10T17:15:17;59.30;;;28.50;;
32106;SDS011;18622;51.998;10.440;2022-12-10T17:17:45;60.27;;;24.97;;
32106;SDS011;18622;51.998;10.440;2022-12-10T17:20:21;52.23;;;23.73;;
32106;SDS011;18622;51.998;10.440;2022-12-10T17:22:46;41.85;;;18.32;;
32106;SDS011;18622;51.998;10.440;2022-12-10T17:25:14;42.23;;;18.52;;
32106;SDS011;18622;51.998;10.440;2022-12-10T17:27:42;43.30;;;19.07;;
32106;SDS011;18622;51.998;10.440;2022-12-10T17:30:15;40.87;;;18.77;;
32106;SDS011;18622;51.998;10.440;2022-12-10T17:32:40;44.03;;;16.60;;
32106;SDS011;18622;51.998;10.440;2022-12-10T17:35:08;47.58;;;20.27;;
32106;SDS011;18622;51.998;10.440;2022-12-10T17:37:36;47.45;;;19.45;;
32106;SDS011;18622;51.998;10.440;2022-12-10T17:40:16;43.77;;;18.50;;
32106;SDS011;18622;51.998;10.440;2022-12-10T17:42:42;49.07;;;20.23;;
32106;SDS011;18622;51.998;10.440;2022-12-10T17:45:13;45.60;;;20.37;;
32106;SDS011;18622;51.998;10.440;2022-12-10T17:47:43;42.08;;;18.62;;
32106;SDS011;18622;51.998;10.440;2022-12-10T17:50:35;52.43;;;23.33;;
32106;SDS011;18622;51.998;10.440;2022-12-10T17:52:59;71.43;;;28.77;;
32106;SDS011;18622;51.998;10.440;2022-12-10T17:57:56;35.17;;;15.72;;
32106;SDS011;18622;51.998;10.440;2022-12-10T18:00:26;211.13;;;69.60;;
32106;SDS011;18622;51.998;10.440;2022-12-10T18:02:55;36.30;;;17.25;;
32106;SDS011;18622;51.998;10.440;2022-12-10T18:05:23;71.20;;;27.83;;
32106;SDS011;18622;51.998;10.440;2022-12-10T18:07:52;112.50;;;45.48;;
32106;SDS011;18622;51.998;10.440;2022-12-10T18:10:24;39.27;;;18.02;;
32106;SDS011;18622;51.998;10.440;2022-12-10T18:12:54;63.67;;;27.40;;
32106;SDS011;18622;51.998;10.440;2022-12-10T18:15:23;33.73;;;14.75;;
32106;SDS011;18622;51.998;10.440;2022-12-10T18:17:52;32.60;;;14.87;;
32106;SDS011;18622;51.998;10.440;2022-12-10T18:20:24;31.37;;;15.90;;
32106;SDS011;18622;51.998;10.440;2022-12-10T18:22:53;32.70;;;15.50;;
32106;SDS011;18622;51.998;10.440;2022-12-10T18:25:21;32.93;;;16.00;;
32106;SDS011;18622;51.998;10.440;2022-12-10T18:27:50;35.43;;;15.83;;
32106;SDS011;18622;51.998;10.440;2022-12-10T18:30:19;36.42;;;18.00;;
32106;SDS011;18622;51.998;10.440;2022-12-10T18:35:15;37.88;;;18.15;;
32106;SDS011;18622;51.998;10.440;2022-12-10T18:37:45;38.33;;;17.00;;
32106;SDS011;18622;51.998;10.440;2022-12-10T18:40:19;38.13;;;17.43;;
32106;SDS011;18622;51.998;10.440;2022-12-10T18:42:47;34.97;;;18.47;;
32106;SDS011;18622;51.998;10.440;2022-12-10T18:45:18;34.30;;;17.92;;
32106;SDS011;18622;51.998;10.440;2022-12-10T18:47:46;38.37;;;17.63;;
32106;SDS011;18622;51.998;10.440;2022-12-10T18:50:20;32.77;;;17.00;;
32106;SDS011;18622;51.998;10.440;2022-12-10T18:52:45;38.77;;;16.10;;
32106;SDS011;18622;51.998;10.440;2022-12-10T18:55:13;38.37;;;17.13;;
32106;SDS011;18622;51.998;10.440;2022-12-10T18:57:42;31.97;;;16.80;;
32106;SDS011;18622;51.998;10.440;2022-12-10T19:00:10;35.67;;;16.87;;
32106;SDS011;18622;51.998;10.440;2022-12-10T19:05:06;38.10;;;17.30;;
32106;SDS011;18622;51.998;10.440;2022-12-10T19:07:34;37.07;;;17.20;;
32106;SDS011;18622;51.998;10.440;2022-12-10T19:10:02;30.80;;;15.60;;
32106;SDS011;18622;51.998;10.440;2022-12-10T19:12:31;31.17;;;15.40;;
32106;SDS011;18622;51.998;10.440;2022-12-10T19:14:58;40.80;;;23.07;;
32106;SDS011;18622;51.998;10.440;2022-12-10T19:17:26;33.07;;;15.50;;
32106;SDS011;18622;51.998;10.440;2022-12-10T19:19:54;31.47;;;16.37;;
32106;SDS011;18622;51.998;10.440;2022-12-10T19:22:22;38.37;;;18.87;;
32106;SDS011;18622;51.998;10.440;2022-12-10T19:24:49;38.07;;;15.87;;
32106;SDS011;18622;51.998;10.440;2022-12-10T19:27:17;35.50;;;15.70;;
32106;SDS011;18622;51.998;10.440;2022-12-10T19:29:45;37.73;;;18.40;;
32106;SDS011;18622;51.998;10.440;2022-12-10T19:32:13;36.87;;;17.80;;
32106;SDS011;18622;51.998;10.440;2022-12-10T19:34:41;34.80;;;16.30;;
32106;SDS011;18622;51.998;10.440;2022-12-10T19:37:09;39.25;;;19.57;;
32106;SDS011;18622;51.998;10.440;2022-12-10T19:39:37;39.77;;;20.13;;
32106;SDS011;18622;51.998;10.440;2022-12-10T19:42:05;40.57;;;20.70;;
32106;SDS011;18622;51.998;10.440;2022-12-10T19:44:33;41.80;;;20.03;;
32106;SDS011;18622;51.998;10.440;2022-12-10T19:47:01;41.17;;;20.43;;
32106;SDS011;18622;51.998;10.440;2022-12-10T19:49:29;35.33;;;18.83;;
32106;SDS011;18622;51.998;10.440;2022-12-10T19:51:57;44.00;;;17.03;;
32106;SDS011;18622;51.998;10.440;2022-12-10T19:54:25;36.67;;;18.20;;
32106;SDS011;18622;51.998;10.440;2022-12-10T19:56:52;35.47;;;16.33;;
32106;SDS011;18622;51.998;10.440;2022-12-10T19:59:20;32.87;;;16.10;;
32106;SDS011;18622;51.998;10.440;2022-12-10T20:01:48;33.00;;;16.50;;
32106;SDS011;18622;51.998;10.440;2022-12-10T20:04:16;35.63;;;16.07;;
32106;SDS011;18622;51.998;10.440;2022-12-10T20:06:45;32.63;;;16.80;;
32106;SDS011;18622;51.998;10.440;2022-12-10T20:09:15;42.55;;;16.85;;
32106;SDS011;18622;51.998;10.440;2022-12-10T20:11:45;39.83;;;16.97;;
32106;SDS011;18622;51.998;10.440;2022-12-10T20:14:12;34.17;;;16.60;;
32106;SDS011;18622;51.998;10.440;2022-12-10T20:16:41;35.27;;;17.67;;
32106;SDS011;18622;51.998;10.440;2022-12-10T20:19:09;32.10;;;16.10;;
32106;SDS011;18622;51.998;10.440;2022-12-10T20:21:39;35.73;;;16.15;;
32106;SDS011;18622;51.998;10.440;2022-12-10T20:24:07;33.97;;;17.03;;
32106;SDS011;18622;51.998;10.440;2022-12-10T20:26:36;36.33;;;16.67;;
32106;SDS011;18622;51.998;10.440;2022-12-10T20:29:12;33.90;;;16.57;;
32106;SDS011;18622;51.998;10.440;2022-12-10T20:31:38;34.97;;;17.70;;
32106;SDS011;18622;51.998;10.440;2022-12-10T20:34:06;35.37;;;16.57;;
32106;SDS011;18622;51.998;10.440;2022-12-10T20:36:37;35.28;;;17.48;;
32106;SDS011;18622;51.998;10.440;2022-12-10T20:39:05;32.13;;;17.50;;
32106;SDS011;18622;51.998;10.440;2022-12-10T20:41:45;34.30;;;16.63;;
32106;SDS011;18622;51.998;10.440;2022-12-10T20:44:13;34.53;;;17.10;;
32106;SDS011;18622;51.998;10.440;2022-12-10T20:46:41;35.83;;;17.07;;
32106;SDS011;18622;51.998;10.440;2022-12-10T20:49:10;61.23;;;31.45;;
32106;SDS011;18622;51.998;10.440;2022-12-10T20:51:39;39.35;;;19.23;;
32106;SDS011;18622;51.998;10.440;2022-12-10T20:54:07;42.13;;;19.87;;
32106;SDS011;18622;51.998;10.440;2022-12-10T20:56:35;36.37;;;16.70;;
32106;SDS011;18622;51.998;10.440;2022-12-10T20:59:03;40.93;;;20.03;;
32106;SDS011;18622;51.998;10.440;2022-12-10T21:01:31;41.02;;;20.50;;
32106;SDS011;18622;51.998;10.440;2022-12-10T21:03:59;35.73;;;16.80;;
32106;SDS011;18622;51.998;10.440;2022-12-10T21:06:28;34.90;;;15.37;;
32106;SDS011;18622;51.998;10.440;2022-12-10T21:08:57;32.40;;;16.23;;
32106;SDS011;18622;51.998;10.440;2022-12-10T21:11:25;35.93;;;17.40;;
32106;SDS011;18622;51.998;10.440;2022-12-10T21:13:53;39.60;;;17.03;;
32106;SDS011;18622;51.998;10.440;2022-12-10T21:16:21;34.10;;;17.77;;
32106;SDS011;18622;51.998;10.440;2022-12-10T21:18:50;36.63;;;17.82;;
32106;SDS011;18622;51.998;10.440;2022-12-10T21:21:19;33.75;;;17.70;;
32106;SDS011;18622;51.998;10.440;2022-12-10T21:23:49;42.13;;;20.00;;
32106;SDS011;18622;51.998;10.440;2022-12-10T21:26:17;40.73;;;20.97;;
32106;SDS011;18622;51.998;10.440;2022-12-10T21:28:45;39.07;;;19.47;;
32106;SDS011;18622;51.998;10.440;2022-12-10T21:31:21;42.00;;;20.70;;
32106;SDS011;18622;51.998;10.440;2022-12-10T21:33:50;40.53;;;19.47;;
32106;SDS011;18622;51.998;10.440;2022-12-10T21:36:18;39.03;;;18.77;;
32106;SDS011;18622;51.998;10.440;2022-12-10T21:38:47;42.05;;;20.52;;
32106;SDS011;18622;51.998;10.440;2022-12-10T21:41:21;40.05;;;18.67;;
32106;SDS011;18622;51.998;10.440;2022-12-10T21:44:04;32.65;;;17.12;;
32106;SDS011;18622;51.998;10.440;2022-12-10T21:46:33;35.00;;;17.27;;
32106;SDS011;18622;51.998;10.440;2022-12-10T21:49:01;31.47;;;17.23;;
32106;SDS011;18622;51.998;10.440;2022-12-10T21:51:29;36.90;;;17.73;;
32106;SDS011;18622;51.998;10.440;2022-12-10T21:53:57;36.33;;;18.00;;
32106;SDS011;18622;51.998;10.440;2022-12-10T21:56:25;34.23;;;18.00;;
32106;SDS011;18622;51.998;10.440;2022-12-10T21:58:55;41.20;;;18.47;;
32106;SDS011;18622;51.998;10.440;2022-12-10T22:01:22;41.53;;;17.87;;
32106;SDS011;18622;51.998;10.440;2022-12-10T22:03:50;33.57;;;17.60;;
32106;SDS011;18622;51.998;10.440;2022-12-10T22:06:24;31.33;;;15.53;;
32106;SDS011;18622;51.998;10.440;2022-12-10T22:08:49;35.00;;;16.67;;
32106;SDS011;18622;51.998;10.440;2022-12-10T22:11:17;30.50;;;16.57;;
32106;SDS011;18622;51.998;10.440;2022-12-10T22:13:45;31.70;;;16.73;;
32106;SDS011;18622;51.998;10.440;2022-12-10T22:16:13;35.37;;;17.00;;
32106;SDS011;18622;51.998;10.440;2022-12-10T22:18:41;36.27;;;17.30;;
32106;SDS011;18622;51.998;10.440;2022-12-10T22:21:08;36.77;;;18.27;;
32106;SDS011;18622;51.998;10.440;2022-12-10T22:23:36;33.83;;;17.67;;
32106;SDS011;18622;51.998;10.440;2022-12-10T22:26:07;37.53;;;17.77;;
32106;SDS011;18622;51.998;10.440;2022-12-10T22:28:35;38.20;;;18.80;;
32106;SDS011;18622;51.998;10.440;2022-12-10T22:31:06;33.83;;;16.50;;
32106;SDS011;18622;51.998;10.440;2022-12-10T22:33:35;33.23;;;16.23;;
32106;SDS011;18622;51.998;10.440;2022-12-10T22:36:03;36.10;;;17.35;;
32106;SDS011;18622;51.998;10.440;2022-12-10T22:38:32;42.55;;;19.70;;
32106;SDS011;18622;51.998;10.440;2022-12-10T22:41:01;39.55;;;19.37;;
32106;SDS011;18622;51.998;10.440;2022-12-10T22:43:30;79.07;;;32.30;;
